sensor_id;sensor_type;location;lat;lon;timestamp;P1;durP1;ratioP1;P2;durP2;ratioP2
5363;SDS011;2705;41.410;2.160;2023-06-04T00:01:29;22.93;;;16.63;;
5363;SDS011;2705;41.410;2.160;2023-06-04T00:03:58;19.47;;;16.10;;
5363;SDS011;2705;41.410;2.160;2023-06-04T00:06:27;21.57;;;17.37;;
5363;SDS011;2705;41.410;2.160;2023-06-04T00:08:57;27.20;;;18.60;;
5363;SDS011;2705;41.410;2.160;2023-06-04T00:11:26;26.37;;;18.00;;
5363;SDS011;2705;41.410;2.160;2023-06-04T00:13:57;22.07;;;16.60;;
5363;SDS011;2705;41.410;2.160;2023-06-04T00:16:26;21.60;;;17.80;;
5363;SDS011;2705;41.410;2.160;2023-06-04T00:18:55;23.63;;;18.07;;
5363;SDS011;2705;41.410;2.160;2023-06-04T00:21:24;24.03;;;19.40;;
5363;SDS011;2705;41.410;2.160;2023-06-04T00:23:54;21.07;;;17.40;;
5363;SDS011;2705;41.410;2.160;2023-06-04T00:26:23;22.67;;;16.87;;
5363;SDS011;2705;41.410;2.160;2023-06-04T00:28:53;21.57;;;17.03;;
5363;SDS011;2705;41.410;2.160;2023-06-04T00:31:24;22.57;;;17.00;;
5363;SDS011;2705;41.410;2.160;2023-06-04T00:33:53;23.30;;;18.33;;
5363;SDS011;2705;41.410;2.160;2023-06-04T00:36:22;24.23;;;17.50;;
5363;SDS011;2705;41.410;2.160;2023-06-04T00:38:52;21.50;;;17.73;;
5363;SDS011;2705;41.410;2.160;2023-06-04T00:41:21;20.53;;;17.00;;
5363;SDS011;2705;41.410;2.160;2023-06-04T00:43:51;18.23;;;13.80;;
5363;SDS011;2705;41.410;2.160;2023-06-04T00:46:25;17.17;;;13.83;;
5363;SDS011;2705;41.410;2.160;2023-06-04T00:48:55;19.77;;;15.37;;
5363;SDS011;2705;41.410;2.160;2023-06-04T00:51:24;19.33;;;15.80;;
5363;SDS011;2705;41.410;2.160;2023-06-04T00:53:54;23.57;;;16.87;;
5363;SDS011;2705;41.410;2.160;2023-06-04T00:56:23;21.30;;;18.23;;
5363;SDS011;2705;41.410;2.160;2023-06-04T00:58:52;20.47;;;15.90;;
5363;SDS011;2705;41.410;2.160;2023-06-04T01:04:18;21.93;;;17.03;;
5363;SDS011;2705;41.410;2.160;2023-06-04T01:06:50;23.40;;;17.80;;
5363;SDS011;2705;41.410;2.160;2023-06-04T01:09:19;23.73;;;18.40;;
5363;SDS011;2705;41.410;2.160;2023-06-04T01:11:49;22.77;;;18.47;;
5363;SDS011;2705;41.410;2.160;2023-06-04T01:14:18;20.47;;;17.07;;
5363;SDS011;2705;41.410;2.160;2023-06-04T01:16:49;22.00;;;17.17;;
5363;SDS011;2705;41.410;2.160;2023-06-04T01:19:45;26.77;;;17.93;;
5363;SDS011;2705;41.410;2.160;2023-06-04T01:22:22;18.60;;;15.50;;
5363;SDS011;2705;41.410;2.160;2023-06-04T01:24:59;21.63;;;14.97;;
5363;SDS011;2705;41.410;2.160;2023-06-04T01:27:31;26.03;;;19.20;;
5363;SDS011;2705;41.410;2.160;2023-06-04T01:30:02;18.97;;;14.03;;
5363;SDS011;2705;41.410;2.160;2023-06-04T01:32:32;19.60;;;14.30;;
5363;SDS011;2705;41.410;2.160;2023-06-04T01:35:06;19.07;;;13.03;;
5363;SDS011;2705;41.410;2.160;2023-06-04T01:37:36;15.87;;;12.77;;
5363;SDS011;2705;41.410;2.160;2023-06-04T01:40:05;18.17;;;11.67;;
5363;SDS011;2705;41.410;2.160;2023-06-04T01:42:36;15.90;;;12.60;;
5363;SDS011;2705;41.410;2.160;2023-06-04T01:45:05;15.20;;;12.10;;
5363;SDS011;2705;41.410;2.160;2023-06-04T01:47:35;14.67;;;12.43;;
5363;SDS011;2705;41.410;2.160;2023-06-04T01:50:06;20.07;;;14.60;;
5363;SDS011;2705;41.410;2.160;2023-06-04T01:52:36;16.23;;;12.50;;
5363;SDS011;2705;41.410;2.160;2023-06-04T01:55:05;18.20;;;13.77;;
5363;SDS011;2705;41.410;2.160;2023-06-04T01:57:35;20.40;;;14.60;;
5363;SDS011;2705;41.410;2.160;2023-06-04T02:00:05;21.17;;;14.47;;
5363;SDS011;2705;41.410;2.160;2023-06-04T02:02:39;27.50;;;16.87;;
5363;SDS011;2705;41.410;2.160;2023-06-04T02:05:10;21.90;;;15.33;;
5363;SDS011;2705;41.410;2.160;2023-06-04T02:07:41;27.87;;;16.83;;
5363;SDS011;2705;41.410;2.160;2023-06-04T02:10:12;26.00;;;17.43;;
5363;SDS011;2705;41.410;2.160;2023-06-04T02:12:52;22.20;;;15.93;;
5363;SDS011;2705;41.410;2.160;2023-06-04T02:15:22;21.87;;;17.10;;
5363;SDS011;2705;41.410;2.160;2023-06-04T02:17:54;25.70;;;18.43;;
5363;SDS011;2705;41.410;2.160;2023-06-04T02:20:27;24.50;;;18.07;;
5363;SDS011;2705;41.410;2.160;2023-06-04T02:22:56;25.57;;;19.37;;
5363;SDS011;2705;41.410;2.160;2023-06-04T02:25:26;24.97;;;18.83;;
5363;SDS011;2705;41.410;2.160;2023-06-04T02:27:55;26.70;;;19.40;;
5363;SDS011;2705;41.410;2.160;2023-06-04T02:30:24;28.47;;;19.43;;
5363;SDS011;2705;41.410;2.160;2023-06-04T02:32:54;29.50;;;20.93;;
5363;SDS011;2705;41.410;2.160;2023-06-04T02:35:23;30.63;;;21.30;;
5363;SDS011;2705;41.410;2.160;2023-06-04T02:37:54;31.63;;;20.37;;
5363;SDS011;2705;41.410;2.160;2023-06-04T02:40:26;33.37;;;19.13;;
5363;SDS011;2705;41.410;2.160;2023-06-04T02:42:55;31.80;;;22.47;;
5363;SDS011;2705;41.410;2.160;2023-06-04T02:45:25;25.80;;;19.87;;
5363;SDS011;2705;41.410;2.160;2023-06-04T02:47:56;27.33;;;18.47;;
5363;SDS011;2705;41.410;2.160;2023-06-04T02:50:26;26.83;;;20.10;;
5363;SDS011;2705;41.410;2.160;2023-06-04T02:52:56;25.40;;;19.20;;
5363;SDS011;2705;41.410;2.160;2023-06-04T02:55:26;25.43;;;19.10;;
5363;SDS011;2705;41.410;2.160;2023-06-04T02:57:55;27.10;;;18.43;;
5363;SDS011;2705;41.410;2.160;2023-06-04T03:00:24;27.27;;;19.70;;
5363;SDS011;2705;41.410;2.160;2023-06-04T03:02:54;29.27;;;19.80;;
5363;SDS011;2705;41.410;2.160;2023-06-04T03:05:29;24.80;;;19.43;;
5363;SDS011;2705;41.410;2.160;2023-06-04T03:08:02;25.50;;;19.70;;
5363;SDS011;2705;41.410;2.160;2023-06-04T03:10:31;26.57;;;19.10;;
5363;SDS011;2705;41.410;2.160;2023-06-04T03:13:01;26.60;;;18.20;;
5363;SDS011;2705;41.410;2.160;2023-06-04T03:15:30;25.53;;;17.70;;
5363;SDS011;2705;41.410;2.160;2023-06-04T03:17:59;24.60;;;17.97;;
5363;SDS011;2705;41.410;2.160;2023-06-04T03:20:29;25.70;;;19.50;;
5363;SDS011;2705;41.410;2.160;2023-06-04T03:23:05;30.10;;;21.23;;
5363;SDS011;2705;41.410;2.160;2023-06-04T03:25:34;26.37;;;19.20;;
5363;SDS011;2705;41.410;2.160;2023-06-04T03:28:04;27.50;;;20.17;;
5363;SDS011;2705;41.410;2.160;2023-06-04T03:30:33;30.90;;;20.43;;
5363;SDS011;2705;41.410;2.160;2023-06-04T03:33:04;29.33;;;20.77;;
5363;SDS011;2705;41.410;2.160;2023-06-04T03:35:34;37.00;;;23.77;;
5363;SDS011;2705;41.410;2.160;2023-06-04T03:38:04;32.17;;;23.43;;
5363;SDS011;2705;41.410;2.160;2023-06-04T03:40:34;32.03;;;22.20;;
5363;SDS011;2705;41.410;2.160;2023-06-04T03:43:05;34.00;;;23.27;;
5363;SDS011;2705;41.410;2.160;2023-06-04T03:45:34;33.80;;;23.47;;
5363;SDS011;2705;41.410;2.160;2023-06-04T03:48:03;37.43;;;23.70;;
5363;SDS011;2705;41.410;2.160;2023-06-04T03:50:35;36.20;;;25.40;;
5363;SDS011;2705;41.410;2.160;2023-06-04T03:53:06;33.70;;;22.07;;
5363;SDS011;2705;41.410;2.160;2023-06-04T03:55:35;31.90;;;22.20;;
5363;SDS011;2705;41.410;2.160;2023-06-04T03:58:06;33.97;;;24.83;;
5363;SDS011;2705;41.410;2.160;2023-06-04T04:00:43;34.40;;;24.00;;
5363;SDS011;2705;41.410;2.160;2023-06-04T04:03:12;37.93;;;24.40;;
5363;SDS011;2705;41.410;2.160;2023-06-04T04:05:43;35.40;;;26.37;;
5363;SDS011;2705;41.410;2.160;2023-06-04T04:08:14;40.27;;;27.50;;
5363;SDS011;2705;41.410;2.160;2023-06-04T04:10:44;42.33;;;28.80;;
5363;SDS011;2705;41.410;2.160;2023-06-04T04:13:14;41.07;;;28.50;;
5363;SDS011;2705;41.410;2.160;2023-06-04T04:15:43;44.60;;;29.90;;
5363;SDS011;2705;41.410;2.160;2023-06-04T04:18:13;49.20;;;31.27;;
5363;SDS011;2705;41.410;2.160;2023-06-04T04:20:44;51.50;;;30.33;;
5363;SDS011;2705;41.410;2.160;2023-06-04T04:23:15;45.63;;;28.90;;
5363;SDS011;2705;41.410;2.160;2023-06-04T04:25:46;45.33;;;29.60;;
5363;SDS011;2705;41.410;2.160;2023-06-04T04:28:16;41.80;;;29.20;;
5363;SDS011;2705;41.410;2.160;2023-06-04T04:30:46;46.10;;;29.70;;
5363;SDS011;2705;41.410;2.160;2023-06-04T04:33:16;46.30;;;30.90;;
5363;SDS011;2705;41.410;2.160;2023-06-04T04:35:46;44.03;;;30.70;;
5363;SDS011;2705;41.410;2.160;2023-06-04T04:38:20;48.47;;;32.53;;
5363;SDS011;2705;41.410;2.160;2023-06-04T04:40:59;54.43;;;31.17;;
5363;SDS011;2705;41.410;2.160;2023-06-04T04:43:29;50.87;;;32.70;;
5363;SDS011;2705;41.410;2.160;2023-06-04T04:46:05;45.33;;;29.97;;
5363;SDS011;2705;41.410;2.160;2023-06-04T04:48:34;48.50;;;31.07;;
5363;SDS011;2705;41.410;2.160;2023-06-04T04:51:05;51.97;;;32.43;;
5363;SDS011;2705;41.410;2.160;2023-06-04T04:53:37;52.63;;;32.90;;
5363;SDS011;2705;41.410;2.160;2023-06-04T04:56:06;48.40;;;30.90;;
5363;SDS011;2705;41.410;2.160;2023-06-04T04:58:39;47.90;;;30.80;;
5363;SDS011;2705;41.410;2.160;2023-06-04T05:01:09;49.77;;;31.93;;
5363;SDS011;2705;41.410;2.160;2023-06-04T05:03:41;48.20;;;31.70;;
5363;SDS011;2705;41.410;2.160;2023-06-04T05:06:13;49.00;;;32.17;;
5363;SDS011;2705;41.410;2.160;2023-06-04T05:08:44;46.43;;;31.83;;
5363;SDS011;2705;41.410;2.160;2023-06-04T05:11:15;46.20;;;32.57;;
5363;SDS011;2705;41.410;2.160;2023-06-04T05:13:46;45.17;;;28.60;;
5363;SDS011;2705;41.410;2.160;2023-06-04T05:16:15;41.50;;;27.87;;
5363;SDS011;2705;41.410;2.160;2023-06-04T05:18:48;41.20;;;28.30;;
5363;SDS011;2705;41.410;2.160;2023-06-04T05:21:22;44.27;;;27.97;;
5363;SDS011;2705;41.410;2.160;2023-06-04T05:23:59;38.73;;;27.00;;
5363;SDS011;2705;41.410;2.160;2023-06-04T05:26:33;38.33;;;25.20;;
5363;SDS011;2705;41.410;2.160;2023-06-04T05:29:09;37.10;;;24.60;;
5363;SDS011;2705;41.410;2.160;2023-06-04T05:31:41;35.17;;;25.57;;
5363;SDS011;2705;41.410;2.160;2023-06-04T05:34:13;32.53;;;23.63;;
5363;SDS011;2705;41.410;2.160;2023-06-04T05:36:45;43.03;;;27.10;;
5363;SDS011;2705;41.410;2.160;2023-06-04T05:39:18;39.20;;;25.97;;
5363;SDS011;2705;41.410;2.160;2023-06-04T05:42:06;38.23;;;24.67;;
5363;SDS011;2705;41.410;2.160;2023-06-04T05:44:36;35.20;;;24.97;;
5363;SDS011;2705;41.410;2.160;2023-06-04T05:47:07;39.27;;;25.40;;
5363;SDS011;2705;41.410;2.160;2023-06-04T05:49:36;31.00;;;23.20;;
5363;SDS011;2705;41.410;2.160;2023-06-04T05:52:06;37.43;;;25.80;;
5363;SDS011;2705;41.410;2.160;2023-06-04T05:54:37;33.30;;;22.83;;
5363;SDS011;2705;41.410;2.160;2023-06-04T05:57:06;28.80;;;21.97;;
5363;SDS011;2705;41.410;2.160;2023-06-04T05:59:36;31.77;;;24.30;;
5363;SDS011;2705;41.410;2.160;2023-06-04T06:02:09;32.87;;;23.00;;
5363;SDS011;2705;41.410;2.160;2023-06-04T06:04:39;30.00;;;21.50;;
5363;SDS011;2705;41.410;2.160;2023-06-04T06:07:09;34.93;;;22.23;;
5363;SDS011;2705;41.410;2.160;2023-06-04T06:09:40;36.43;;;26.00;;
5363;SDS011;2705;41.410;2.160;2023-06-04T06:12:09;33.33;;;24.00;;
5363;SDS011;2705;41.410;2.160;2023-06-04T06:14:41;36.70;;;22.40;;
5363;SDS011;2705;41.410;2.160;2023-06-04T06:17:10;30.50;;;22.50;;
5363;SDS011;2705;41.410;2.160;2023-06-04T06:19:39;34.67;;;24.73;;
5363;SDS011;2705;41.410;2.160;2023-06-04T06:22:09;25.73;;;19.07;;
5363;SDS011;2705;41.410;2.160;2023-06-04T06:24:39;36.07;;;22.17;;
5363;SDS011;2705;41.410;2.160;2023-06-04T06:27:10;28.33;;;19.10;;
5363;SDS011;2705;41.410;2.160;2023-06-04T06:29:40;28.23;;;20.30;;
5363;SDS011;2705;41.410;2.160;2023-06-04T06:32:09;28.53;;;19.70;;
5363;SDS011;2705;41.410;2.160;2023-06-04T06:34:39;30.80;;;23.00;;
5363;SDS011;2705;41.410;2.160;2023-06-04T06:37:08;33.63;;;22.33;;
5363;SDS011;2705;41.410;2.160;2023-06-04T06:39:37;35.70;;;25.13;;
5363;SDS011;2705;41.410;2.160;2023-06-04T06:42:06;35.83;;;23.17;;
5363;SDS011;2705;41.410;2.160;2023-06-04T06:44:41;30.53;;;21.93;;
5363;SDS011;2705;41.410;2.160;2023-06-04T06:47:11;30.67;;;19.90;;
5363;SDS011;2705;41.410;2.160;2023-06-04T06:49:40;26.67;;;19.53;;
5363;SDS011;2705;41.410;2.160;2023-06-04T06:52:09;24.40;;;18.50;;
5363;SDS011;2705;41.410;2.160;2023-06-04T06:54:39;28.40;;;19.60;;
5363;SDS011;2705;41.410;2.160;2023-06-04T06:57:08;31.10;;;21.00;;
5363;SDS011;2705;41.410;2.160;2023-06-04T06:59:37;28.27;;;20.70;;
5363;SDS011;2705;41.410;2.160;2023-06-04T07:02:08;31.70;;;20.97;;
5363;SDS011;2705;41.410;2.160;2023-06-04T07:04:37;27.77;;;20.03;;
5363;SDS011;2705;41.410;2.160;2023-06-04T07:07:07;26.90;;;20.27;;
5363;SDS011;2705;41.410;2.160;2023-06-04T07:09:36;21.30;;;16.67;;
5363;SDS011;2705;41.410;2.160;2023-06-04T07:12:05;24.17;;;16.50;;
5363;SDS011;2705;41.410;2.160;2023-06-04T07:14:34;22.80;;;16.70;;
5363;SDS011;2705;41.410;2.160;2023-06-04T07:17:04;19.07;;;14.20;;
5363;SDS011;2705;41.410;2.160;2023-06-04T07:19:34;20.53;;;14.10;;
5363;SDS011;2705;41.410;2.160;2023-06-04T07:22:04;22.33;;;15.30;;
5363;SDS011;2705;41.410;2.160;2023-06-04T07:24:33;20.20;;;15.97;;
5363;SDS011;2705;41.410;2.160;2023-06-04T07:27:09;16.40;;;12.80;;
5363;SDS011;2705;41.410;2.160;2023-06-04T07:29:38;15.33;;;13.03;;
5363;SDS011;2705;41.410;2.160;2023-06-04T07:32:07;13.60;;;11.00;;
5363;SDS011;2705;41.410;2.160;2023-06-04T07:34:38;19.30;;;14.90;;
5363;SDS011;2705;41.410;2.160;2023-06-04T07:37:08;17.27;;;13.93;;
5363;SDS011;2705;41.410;2.160;2023-06-04T07:39:38;19.10;;;14.03;;
5363;SDS011;2705;41.410;2.160;2023-06-04T07:42:07;22.90;;;15.50;;
5363;SDS011;2705;41.410;2.160;2023-06-04T07:44:36;20.80;;;15.53;;
5363;SDS011;2705;41.410;2.160;2023-06-04T07:47:06;20.43;;;14.73;;
5363;SDS011;2705;41.410;2.160;2023-06-04T07:49:35;24.57;;;15.37;;
5363;SDS011;2705;41.410;2.160;2023-06-04T07:52:18;18.60;;;14.63;;
5363;SDS011;2705;41.410;2.160;2023-06-04T07:54:47;24.93;;;15.93;;
5363;SDS011;2705;41.410;2.160;2023-06-04T07:57:16;23.87;;;17.50;;
5363;SDS011;2705;41.410;2.160;2023-06-04T07:59:46;20.87;;;15.13;;
5363;SDS011;2705;41.410;2.160;2023-06-04T08:02:15;24.33;;;17.93;;
5363;SDS011;2705;41.410;2.160;2023-06-04T08:04:44;24.93;;;18.67;;
5363;SDS011;2705;41.410;2.160;2023-06-04T08:07:14;30.73;;;17.10;;
5363;SDS011;2705;41.410;2.160;2023-06-04T08:09:45;27.30;;;19.37;;
5363;SDS011;2705;41.410;2.160;2023-06-04T08:12:14;28.77;;;20.50;;
5363;SDS011;2705;41.410;2.160;2023-06-04T08:14:43;26.70;;;20.03;;
5363;SDS011;2705;41.410;2.160;2023-06-04T08:17:13;25.17;;;18.30;;
5363;SDS011;2705;41.410;2.160;2023-06-04T08:19:42;22.13;;;17.47;;
5363;SDS011;2705;41.410;2.160;2023-06-04T08:22:17;23.40;;;18.37;;
5363;SDS011;2705;41.410;2.160;2023-06-04T08:25:00;22.67;;;16.13;;
5363;SDS011;2705;41.410;2.160;2023-06-04T08:27:50;21.93;;;16.37;;
5363;SDS011;2705;41.410;2.160;2023-06-04T08:30:40;24.40;;;18.10;;
5363;SDS011;2705;41.410;2.160;2023-06-04T08:33:21;23.40;;;16.63;;
5363;SDS011;2705;41.410;2.160;2023-06-04T08:35:54;21.10;;;16.97;;
5363;SDS011;2705;41.410;2.160;2023-06-04T08:38:23;18.90;;;16.17;;
5363;SDS011;2705;41.410;2.160;2023-06-04T08:40:54;19.23;;;15.10;;
5363;SDS011;2705;41.410;2.160;2023-06-04T08:43:26;20.73;;;14.00;;
5363;SDS011;2705;41.410;2.160;2023-06-04T08:45:57;18.63;;;13.90;;
5363;SDS011;2705;41.410;2.160;2023-06-04T08:48:29;18.70;;;13.33;;
5363;SDS011;2705;41.410;2.160;2023-06-04T08:50:58;24.13;;;14.77;;
5363;SDS011;2705;41.410;2.160;2023-06-04T08:53:29;16.83;;;12.77;;
5363;SDS011;2705;41.410;2.160;2023-06-04T08:56:00;17.80;;;12.77;;
5363;SDS011;2705;41.410;2.160;2023-06-04T08:58:30;17.00;;;11.03;;
5363;SDS011;2705;41.410;2.160;2023-06-04T09:01:00;11.03;;;9.10;;
5363;SDS011;2705;41.410;2.160;2023-06-04T09:03:55;14.90;;;10.50;;
5363;SDS011;2705;41.410;2.160;2023-06-04T09:06:25;14.13;;;10.13;;
5363;SDS011;2705;41.410;2.160;2023-06-04T09:08:56;12.13;;;10.87;;
5363;SDS011;2705;41.410;2.160;2023-06-04T09:11:29;18.30;;;10.60;;
5363;SDS011;2705;41.410;2.160;2023-06-04T09:14:02;12.60;;;9.50;;
5363;SDS011;2705;41.410;2.160;2023-06-04T09:16:41;14.23;;;10.83;;
5363;SDS011;2705;41.410;2.160;2023-06-04T09:19:11;13.77;;;10.80;;
5363;SDS011;2705;41.410;2.160;2023-06-04T09:21:49;12.20;;;10.40;;
5363;SDS011;2705;41.410;2.160;2023-06-04T09:24:19;10.90;;;8.47;;
5363;SDS011;2705;41.410;2.160;2023-06-04T09:26:50;12.07;;;9.60;;
5363;SDS011;2705;41.410;2.160;2023-06-04T09:29:19;16.20;;;12.00;;
5363;SDS011;2705;41.410;2.160;2023-06-04T09:31:56;14.23;;;10.20;;
5363;SDS011;2705;41.410;2.160;2023-06-04T09:34:29;16.40;;;11.13;;
5363;SDS011;2705;41.410;2.160;2023-06-04T09:36:59;12.10;;;8.77;;
5363;SDS011;2705;41.410;2.160;2023-06-04T09:39:29;10.00;;;7.50;;
5363;SDS011;2705;41.410;2.160;2023-06-04T09:42:00;11.27;;;8.10;;
5363;SDS011;2705;41.410;2.160;2023-06-04T09:44:29;13.67;;;9.27;;
5363;SDS011;2705;41.410;2.160;2023-06-04T09:46:59;7.50;;;6.80;;
5363;SDS011;2705;41.410;2.160;2023-06-04T09:49:28;7.23;;;6.53;;
5363;SDS011;2705;41.410;2.160;2023-06-04T09:51:57;9.47;;;6.30;;
5363;SDS011;2705;41.410;2.160;2023-06-04T09:54:34;8.33;;;6.73;;
5363;SDS011;2705;41.410;2.160;2023-06-04T09:57:10;9.07;;;6.37;;
5363;SDS011;2705;41.410;2.160;2023-06-04T09:59:43;8.77;;;6.10;;
5363;SDS011;2705;41.410;2.160;2023-06-04T10:02:13;6.13;;;5.53;;
5363;SDS011;2705;41.410;2.160;2023-06-04T10:04:44;7.00;;;6.30;;
5363;SDS011;2705;41.410;2.160;2023-06-04T10:07:15;7.10;;;5.63;;
5363;SDS011;2705;41.410;2.160;2023-06-04T10:09:44;9.90;;;6.30;;
5363;SDS011;2705;41.410;2.160;2023-06-04T10:12:15;9.80;;;5.83;;
5363;SDS011;2705;41.410;2.160;2023-06-04T10:14:45;18.03;;;6.47;;
5363;SDS011;2705;41.410;2.160;2023-06-04T10:17:17;10.33;;;6.50;;
5363;SDS011;2705;41.410;2.160;2023-06-04T10:19:46;9.60;;;6.90;;
5363;SDS011;2705;41.410;2.160;2023-06-04T10:22:18;6.70;;;5.70;;
5363;SDS011;2705;41.410;2.160;2023-06-04T10:24:48;7.73;;;6.40;;
5363;SDS011;2705;41.410;2.160;2023-06-04T10:27:19;7.10;;;6.27;;
5363;SDS011;2705;41.410;2.160;2023-06-04T10:29:49;8.73;;;5.13;;
5363;SDS011;2705;41.410;2.160;2023-06-04T10:32:19;10.03;;;6.70;;
5363;SDS011;2705;41.410;2.160;2023-06-04T10:34:49;8.80;;;6.10;;
5363;SDS011;2705;41.410;2.160;2023-06-04T10:37:18;9.30;;;6.50;;
5363;SDS011;2705;41.410;2.160;2023-06-04T10:39:52;7.57;;;6.53;;
5363;SDS011;2705;41.410;2.160;2023-06-04T10:42:22;6.70;;;5.40;;
5363;SDS011;2705;41.410;2.160;2023-06-04T10:44:53;11.80;;;6.30;;
5363;SDS011;2705;41.410;2.160;2023-06-04T10:47:25;9.60;;;6.20;;
5363;SDS011;2705;41.410;2.160;2023-06-04T10:49:54;6.27;;;4.87;;
5363;SDS011;2705;41.410;2.160;2023-06-04T10:52:23;8.07;;;5.80;;
5363;SDS011;2705;41.410;2.160;2023-06-04T10:55:02;5.93;;;5.30;;
5363;SDS011;2705;41.410;2.160;2023-06-04T10:57:33;6.63;;;4.83;;
5363;SDS011;2705;41.410;2.160;2023-06-04T11:00:03;7.97;;;5.07;;
5363;SDS011;2705;41.410;2.160;2023-06-04T11:02:37;10.27;;;5.77;;
5363;SDS011;2705;41.410;2.160;2023-06-04T11:05:07;9.50;;;6.07;;
5363;SDS011;2705;41.410;2.160;2023-06-04T11:07:40;9.10;;;6.93;;
5363;SDS011;2705;41.410;2.160;2023-06-04T11:10:12;10.20;;;6.70;;
5363;SDS011;2705;41.410;2.160;2023-06-04T11:12:44;7.50;;;5.93;;
5363;SDS011;2705;41.410;2.160;2023-06-04T11:15:13;9.80;;;6.67;;
5363;SDS011;2705;41.410;2.160;2023-06-04T11:17:52;8.20;;;6.10;;
5363;SDS011;2705;41.410;2.160;2023-06-04T11:20:22;7.90;;;5.50;;
5363;SDS011;2705;41.410;2.160;2023-06-04T11:22:52;13.03;;;6.67;;
5363;SDS011;2705;41.410;2.160;2023-06-04T11:25:21;8.90;;;6.47;;
5363;SDS011;2705;41.410;2.160;2023-06-04T11:27:52;7.77;;;6.60;;
5363;SDS011;2705;41.410;2.160;2023-06-04T11:30:22;9.23;;;6.57;;
5363;SDS011;2705;41.410;2.160;2023-06-04T11:32:59;11.13;;;7.60;;
5363;SDS011;2705;41.410;2.160;2023-06-04T11:35:29;11.83;;;6.93;;
5363;SDS011;2705;41.410;2.160;2023-06-04T11:37:58;18.97;;;16.50;;
5363;SDS011;2705;41.410;2.160;2023-06-04T11:40:28;11.30;;;7.00;;
5363;SDS011;2705;41.410;2.160;2023-06-04T11:42:59;10.37;;;6.37;;
5363;SDS011;2705;41.410;2.160;2023-06-04T11:45:28;7.23;;;6.53;;
5363;SDS011;2705;41.410;2.160;2023-06-04T11:47:58;8.53;;;6.60;;
5363;SDS011;2705;41.410;2.160;2023-06-04T11:50:27;7.87;;;5.90;;
5363;SDS011;2705;41.410;2.160;2023-06-04T11:52:57;10.13;;;7.30;;
5363;SDS011;2705;41.410;2.160;2023-06-04T11:55:27;17.37;;;11.80;;
5363;SDS011;2705;41.410;2.160;2023-06-04T11:57:56;19.73;;;13.63;;
5363;SDS011;2705;41.410;2.160;2023-06-04T12:00:28;7.97;;;5.93;;
5363;SDS011;2705;41.410;2.160;2023-06-04T12:02:57;6.97;;;5.53;;
5363;SDS011;2705;41.410;2.160;2023-06-04T12:05:29;8.13;;;6.20;;
5363;SDS011;2705;41.410;2.160;2023-06-04T12:08:05;8.20;;;6.23;;
5363;SDS011;2705;41.410;2.160;2023-06-04T12:10:37;9.60;;;6.50;;
5363;SDS011;2705;41.410;2.160;2023-06-04T12:13:06;8.30;;;5.70;;
5363;SDS011;2705;41.410;2.160;2023-06-04T12:15:37;13.10;;;7.97;;
5363;SDS011;2705;41.410;2.160;2023-06-04T12:18:07;9.97;;;6.43;;
5363;SDS011;2705;41.410;2.160;2023-06-04T12:20:37;9.40;;;6.57;;
5363;SDS011;2705;41.410;2.160;2023-06-04T12:23:07;9.43;;;6.47;;
5363;SDS011;2705;41.410;2.160;2023-06-04T12:25:36;16.13;;;10.87;;
5363;SDS011;2705;41.410;2.160;2023-06-04T12:28:07;12.30;;;6.97;;
5363;SDS011;2705;41.410;2.160;2023-06-04T12:30:47;6.53;;;5.37;;
5363;SDS011;2705;41.410;2.160;2023-06-04T12:33:16;9.70;;;6.87;;
5363;SDS011;2705;41.410;2.160;2023-06-04T12:35:45;11.00;;;6.00;;
5363;SDS011;2705;41.410;2.160;2023-06-04T12:38:14;9.17;;;6.20;;
5363;SDS011;2705;41.410;2.160;2023-06-04T12:40:44;10.40;;;6.30;;
5363;SDS011;2705;41.410;2.160;2023-06-04T12:43:13;12.50;;;9.57;;
5363;SDS011;2705;41.410;2.160;2023-06-04T12:45:42;13.10;;;5.63;;
5363;SDS011;2705;41.410;2.160;2023-06-04T12:48:14;6.87;;;6.10;;
5363;SDS011;2705;41.410;2.160;2023-06-04T12:50:43;8.07;;;5.37;;
5363;SDS011;2705;41.410;2.160;2023-06-04T12:53:12;6.10;;;4.53;;
5363;SDS011;2705;41.410;2.160;2023-06-04T12:55:41;6.37;;;4.70;;
5363;SDS011;2705;41.410;2.160;2023-06-04T12:58:11;11.10;;;5.03;;
5363;SDS011;2705;41.410;2.160;2023-06-04T13:00:40;10.47;;;7.07;;
5363;SDS011;2705;41.410;2.160;2023-06-04T13:03:09;11.23;;;5.33;;
5363;SDS011;2705;41.410;2.160;2023-06-04T13:05:40;9.83;;;6.47;;
5363;SDS011;2705;41.410;2.160;2023-06-04T13:08:10;9.30;;;5.90;;
5363;SDS011;2705;41.410;2.160;2023-06-04T13:10:39;8.50;;;5.73;;
5363;SDS011;2705;41.410;2.160;2023-06-04T13:13:08;9.00;;;5.80;;
5363;SDS011;2705;41.410;2.160;2023-06-04T13:15:37;6.97;;;5.10;;
5363;SDS011;2705;41.410;2.160;2023-06-04T13:18:07;7.70;;;5.80;;
5363;SDS011;2705;41.410;2.160;2023-06-04T13:20:36;12.73;;;6.37;;
5363;SDS011;2705;41.410;2.160;2023-06-04T13:23:07;15.57;;;5.40;;
5363;SDS011;2705;41.410;2.160;2023-06-04T13:25:36;8.53;;;5.73;;
5363;SDS011;2705;41.410;2.160;2023-06-04T13:28:05;8.37;;;5.80;;
5363;SDS011;2705;41.410;2.160;2023-06-04T13:30:35;8.13;;;6.13;;
5363;SDS011;2705;41.410;2.160;2023-06-04T13:33:05;13.97;;;7.90;;
5363;SDS011;2705;41.410;2.160;2023-06-04T13:35:34;10.00;;;7.07;;
5363;SDS011;2705;41.410;2.160;2023-06-04T13:38:04;5.53;;;4.63;;
5363;SDS011;2705;41.410;2.160;2023-06-04T13:40:35;5.60;;;4.50;;
5363;SDS011;2705;41.410;2.160;2023-06-04T13:43:04;7.27;;;5.00;;
5363;SDS011;2705;41.410;2.160;2023-06-04T13:45:33;12.10;;;5.60;;
5363;SDS011;2705;41.410;2.160;2023-06-04T13:48:03;11.17;;;5.80;;
5363;SDS011;2705;41.410;2.160;2023-06-04T13:50:34;7.33;;;4.37;;
5363;SDS011;2705;41.410;2.160;2023-06-04T13:53:03;5.93;;;4.00;;
5363;SDS011;2705;41.410;2.160;2023-06-04T13:55:32;7.70;;;4.80;;
5363;SDS011;2705;41.410;2.160;2023-06-04T13:58:03;8.33;;;6.73;;
5363;SDS011;2705;41.410;2.160;2023-06-04T14:00:32;8.30;;;6.17;;
5363;SDS011;2705;41.410;2.160;2023-06-04T14:03:02;6.60;;;4.70;;
5363;SDS011;2705;41.410;2.160;2023-06-04T14:05:31;7.00;;;4.87;;
5363;SDS011;2705;41.410;2.160;2023-06-04T14:08:01;7.93;;;4.93;;
5363;SDS011;2705;41.410;2.160;2023-06-04T14:10:31;11.13;;;5.83;;
5363;SDS011;2705;41.410;2.160;2023-06-04T14:13:00;7.27;;;4.90;;
5363;SDS011;2705;41.410;2.160;2023-06-04T14:15:31;8.80;;;6.07;;
5363;SDS011;2705;41.410;2.160;2023-06-04T14:18:00;6.60;;;4.70;;
5363;SDS011;2705;41.410;2.160;2023-06-04T14:20:29;12.47;;;6.23;;
5363;SDS011;2705;41.410;2.160;2023-06-04T14:22:59;10.53;;;5.53;;
5363;SDS011;2705;41.410;2.160;2023-06-04T14:25:28;6.30;;;5.30;;
5363;SDS011;2705;41.410;2.160;2023-06-04T14:27:59;9.07;;;6.67;;
5363;SDS011;2705;41.410;2.160;2023-06-04T14:30:30;6.80;;;5.60;;
5363;SDS011;2705;41.410;2.160;2023-06-04T14:32:59;9.73;;;5.27;;
5363;SDS011;2705;41.410;2.160;2023-06-04T14:35:29;5.30;;;4.50;;
5363;SDS011;2705;41.410;2.160;2023-06-04T14:37:58;10.13;;;4.60;;
5363;SDS011;2705;41.410;2.160;2023-06-04T14:40:27;7.47;;;5.00;;
5363;SDS011;2705;41.410;2.160;2023-06-04T14:42:57;9.97;;;5.90;;
5363;SDS011;2705;41.410;2.160;2023-06-04T14:45:26;8.67;;;6.10;;
5363;SDS011;2705;41.410;2.160;2023-06-04T14:47:57;9.60;;;4.73;;
5363;SDS011;2705;41.410;2.160;2023-06-04T14:50:41;5.23;;;3.97;;
5363;SDS011;2705;41.410;2.160;2023-06-04T14:53:10;10.20;;;4.70;;
5363;SDS011;2705;41.410;2.160;2023-06-04T14:55:40;7.50;;;4.10;;
5363;SDS011;2705;41.410;2.160;2023-06-04T14:58:10;6.03;;;3.70;;
5363;SDS011;2705;41.410;2.160;2023-06-04T15:00:40;4.67;;;3.87;;
5363;SDS011;2705;41.410;2.160;2023-06-04T15:03:10;6.97;;;4.13;;
5363;SDS011;2705;41.410;2.160;2023-06-04T15:05:40;8.20;;;5.17;;
5363;SDS011;2705;41.410;2.160;2023-06-04T15:08:09;5.80;;;4.23;;
5363;SDS011;2705;41.410;2.160;2023-06-04T15:10:38;6.40;;;4.40;;
5363;SDS011;2705;41.410;2.160;2023-06-04T15:13:07;10.23;;;5.20;;
5363;SDS011;2705;41.410;2.160;2023-06-04T15:15:36;12.33;;;6.90;;
5363;SDS011;2705;41.410;2.160;2023-06-04T15:18:06;5.73;;;3.97;;
5363;SDS011;2705;41.410;2.160;2023-06-04T15:20:36;8.03;;;4.37;;